Terminal Aerodrome Forecast
Issued by NWS Boston, MA

Home | Current Version | Previous Version | Text Only | Print | Product List | Glossary On
Versions: 1 2 3 4 5 6 7 8 9 10 11 12 13 14 15 16 17 18 19 20 21 22 23 24 25 26
000
FTUS41 KBOX 042325
TAFORH
TAF
KORH 042325Z 0500/0524 20015G24KT P6SM SKC
     FM050300 24013KT P6SM BKN250
     FM050500 24013KT P6SM BKN070 WS020/24045KT
     FM050800 25011KT P6SM BKN070
     FM051200 27007KT P6SM BKN050
     FM052300 VRB03KT P6SM BKN200=

USA.gov is the U.S. government's official web portal to all federal, state and local government web resources and services.